sensor_id;sensor_type;location;lat;lon;timestamp;pressure;altitude;pressure_sealevel;temperature;humidity
55675;BME280;41562;44.330;23.802;2023-04-08T00:01:33;100576.41;;;5.93;92.34
55675;BME280;41562;44.330;23.802;2023-04-08T00:04:00;100578.00;;;5.94;91.80
55675;BME280;41562;44.330;23.802;2023-04-08T00:06:28;100574.00;;;5.92;90.82
55675;BME280;41562;44.330;23.802;2023-04-08T00:08:56;100575.69;;;5.86;90.64
55675;BME280;41562;44.330;23.802;2023-04-08T00:11:23;100567.63;;;5.81;91.55
55675;BME280;41562;44.330;23.802;2023-04-08T00:13:51;100557.13;;;5.86;91.63
55675;BME280;41562;44.330;23.802;2023-04-08T00:16:18;100559.31;;;6.01;92.05
55675;BME280;41562;44.330;23.802;2023-04-08T00:18:45;100555.97;;;6.05;93.30
55675;BME280;41562;44.330;23.802;2023-04-08T00:21:13;100555.94;;;6.17;96.01
55675;BME280;41562;44.330;23.802;2023-04-08T00:23:40;100560.13;;;6.01;94.67
55675;BME280;41562;44.330;23.802;2023-04-08T00:26:08;100552.84;;;5.85;95.80
55675;BME280;41562;44.330;23.802;2023-04-08T00:28:35;100556.19;;;5.69;96.71
55675;BME280;41562;44.330;23.802;2023-04-08T00:31:03;100557.13;;;5.75;96.19
55675;BME280;41562;44.330;23.802;2023-04-08T00:33:30;100560.59;;;5.75;95.91
55675;BME280;41562;44.330;23.802;2023-04-08T00:35:57;100563.91;;;5.82;95.48
55675;BME280;41562;44.330;23.802;2023-04-08T00:38:25;100570.97;;;5.88;94.68
55675;BME280;41562;44.330;23.802;2023-04-08T00:40:52;100571.22;;;5.98;95.00
55675;BME280;41562;44.330;23.802;2023-04-08T00:43:20;100575.69;;;6.10;92.63
55675;BME280;41562;44.330;23.802;2023-04-08T00:45:47;100573.84;;;5.87;93.43
55675;BME280;41562;44.330;23.802;2023-04-08T00:48:15;100571.56;;;5.90;93.72
55675;BME280;41562;44.330;23.802;2023-04-08T00:50:43;100578.94;;;5.88;94.32
55675;BME280;41562;44.330;23.802;2023-04-08T00:53:10;100571.78;;;5.89;94.25
55675;BME280;41562;44.330;23.802;2023-04-08T00:55:37;100572.94;;;5.93;94.54
55675;BME280;41562;44.330;23.802;2023-04-08T00:58:05;100565.88;;;5.87;93.46
55675;BME280;41562;44.330;23.802;2023-04-08T01:00:33;100569.13;;;5.89;93.75
55675;BME280;41562;44.330;23.802;2023-04-08T01:03:26;100570.28;;;5.81;93.32
55675;BME280;41562;44.330;23.802;2023-04-08T01:06:12;100572.00;;;5.64;93.63
55675;BME280;41562;44.330;23.802;2023-04-08T01:08:42;100576.03;;;5.55;94.97
55675;BME280;41562;44.330;23.802;2023-04-08T01:11:11;100574.53;;;5.59;94.55
55675;BME280;41562;44.330;23.802;2023-04-08T01:13:41;100574.75;;;5.69;94.43
55675;BME280;41562;44.330;23.802;2023-04-08T01:16:12;100566.34;;;5.84;93.69
55675;BME280;41562;44.330;23.802;2023-04-08T01:18:41;100576.16;;;5.72;94.27
55675;BME280;41562;44.330;23.802;2023-04-08T01:21:11;100573.16;;;5.68;95.61
55675;BME280;41562;44.330;23.802;2023-04-08T01:24:10;100574.41;;;5.54;95.56
55675;BME280;41562;44.330;23.802;2023-04-08T01:26:41;100571.53;;;5.67;95.18
55675;BME280;41562;44.330;23.802;2023-04-08T01:29:10;100571.88;;;5.82;94.12
55675;BME280;41562;44.330;23.802;2023-04-08T01:31:40;100575.91;;;5.85;94.81
55675;BME280;41562;44.330;23.802;2023-04-08T01:34:08;100584.09;;;5.72;93.78
55675;BME280;41562;44.330;23.802;2023-04-08T01:36:37;100577.41;;;5.69;93.68
55675;BME280;41562;44.330;23.802;2023-04-08T01:39:06;100576.84;;;5.67;93.78
55675;BME280;41562;44.330;23.802;2023-04-08T01:41:34;100579.13;;;5.63;95.02
55675;BME280;41562;44.330;23.802;2023-04-08T01:44:03;100578.56;;;5.50;96.60
55675;BME280;41562;44.330;23.802;2023-04-08T01:46:31;100577.63;;;5.44;97.62
55675;BME280;41562;44.330;23.802;2023-04-08T01:48:59;100580.16;;;5.51;96.61
55675;BME280;41562;44.330;23.802;2023-04-08T01:51:28;100580.16;;;5.51;97.43
55675;BME280;41562;44.330;23.802;2023-04-08T01:53:57;100576.25;;;5.77;96.09
55675;BME280;41562;44.330;23.802;2023-04-08T01:56:26;100581.69;;;5.70;95.61
55675;BME280;41562;44.330;23.802;2023-04-08T01:58:57;100572.03;;;5.87;95.40
55675;BME280;41562;44.330;23.802;2023-04-08T02:01:26;100581.00;;;5.75;95.95
55675;BME280;41562;44.330;23.802;2023-04-08T02:03:56;100568.41;;;5.70;95.74
55675;BME280;41562;44.330;23.802;2023-04-08T02:06:25;100574.28;;;5.37;96.26
55675;BME280;41562;44.330;23.802;2023-04-08T02:08:53;100580.75;;;5.41;97.18
55675;BME280;41562;44.330;23.802;2023-04-08T02:11:21;100584.09;;;5.48;99.48
55675;BME280;41562;44.330;23.802;2023-04-08T02:13:48;100576.81;;;5.44;98.80
55675;BME280;41562;44.330;23.802;2023-04-08T02:16:22;100583.63;;;5.51;97.28
55675;BME280;41562;44.330;23.802;2023-04-08T02:19:30;100585.69;;;5.38;97.16
55675;BME280;41562;44.330;23.802;2023-04-08T02:22:10;100584.09;;;5.48;97.93
55675;BME280;41562;44.330;23.802;2023-04-08T02:24:45;100581.88;;;5.34;96.66
55675;BME280;41562;44.330;23.802;2023-04-08T02:27:13;100581.28;;;5.32;97.32
55675;BME280;41562;44.330;23.802;2023-04-08T02:29:44;100577.19;;;5.59;96.98
55675;BME280;41562;44.330;23.802;2023-04-08T02:32:13;100576.03;;;5.55;97.52
55675;BME280;41562;44.330;23.802;2023-04-08T02:34:42;100580.41;;;5.61;96.21
55675;BME280;41562;44.330;23.802;2023-04-08T02:37:09;100575.31;;;5.48;98.23
55675;BME280;41562;44.330;23.802;2023-04-08T02:39:38;100577.28;;;5.41;99.96
55675;BME280;41562;44.330;23.802;2023-04-08T02:42:06;100581.44;;;5.60;99.38
55675;BME280;41562;44.330;23.802;2023-04-08T02:44:33;100581.09;;;5.56;97.64
55675;BME280;41562;44.330;23.802;2023-04-08T02:47:00;100583.28;;;5.71;97.99
55675;BME280;41562;44.330;23.802;2023-04-08T02:49:27;100577.41;;;5.46;99.71
55675;BME280;41562;44.330;23.802;2023-04-08T02:51:55;100580.41;;;5.61;99.52
55675;BME280;41562;44.330;23.802;2023-04-08T02:54:22;100584.00;;;5.66;98.97
55675;BME280;41562;44.330;23.802;2023-04-08T02:56:50;100582.03;;;5.62;98.05
55675;BME280;41562;44.330;23.802;2023-04-08T02:59:17;100589.25;;;5.32;98.64
55675;BME280;41562;44.330;23.802;2023-04-08T03:01:44;100587.44;;;5.55;100.00
55675;BME280;41562;44.330;23.802;2023-04-08T03:04:12;100596.03;;;5.28;99.16
55675;BME280;41562;44.330;23.802;2023-04-08T03:06:39;100598.94;;;5.38;98.91
55675;BME280;41562;44.330;23.802;2023-04-08T03:09:06;100605.97;;;5.44;98.95
55675;BME280;41562;44.330;23.802;2023-04-08T03:11:34;100589.75;;;5.52;100.00
55675;BME280;41562;44.330;23.802;2023-04-08T03:14:01;100594.22;;;5.51;99.55
55675;BME280;41562;44.330;23.802;2023-04-08T03:16:28;100597.25;;;5.55;97.98
55675;BME280;41562;44.330;23.802;2023-04-08T03:18:56;100590.97;;;5.38;99.54
55675;BME280;41562;44.330;23.802;2023-04-08T03:21:23;100595.41;;;5.67;100.00
55675;BME280;41562;44.330;23.802;2023-04-08T03:23:50;100598.19;;;5.72;98.42
55675;BME280;41562;44.330;23.802;2023-04-08T03:26:18;100597.47;;;5.42;99.34
55675;BME280;41562;44.330;23.802;2023-04-08T03:28:45;100591.53;;;5.28;100.00
55675;BME280;41562;44.330;23.802;2023-04-08T03:31:13;100600.94;;;5.54;100.00
55675;BME280;41562;44.330;23.802;2023-04-08T03:33:40;100602.56;;;5.55;98.44
55675;BME280;41562;44.330;23.802;2023-04-08T03:36:07;100607.59;;;5.45;98.98
55675;BME280;41562;44.330;23.802;2023-04-08T03:38:35;100611.50;;;5.31;99.38
55675;BME280;41562;44.330;23.802;2023-04-08T03:41:02;100615.00;;;5.43;99.61
55675;BME280;41562;44.330;23.802;2023-04-08T03:43:30;100615.91;;;5.37;99.39
55675;BME280;41562;44.330;23.802;2023-04-08T03:45:58;100615.44;;;5.40;98.15
55675;BME280;41562;44.330;23.802;2023-04-08T03:48:25;100620.88;;;5.56;97.54
55675;BME280;41562;44.330;23.802;2023-04-08T03:50:53;100618.69;;;5.65;100.00
55675;BME280;41562;44.330;23.802;2023-04-08T03:53:21;100621.25;;;5.60;97.24
55675;BME280;41562;44.330;23.802;2023-04-08T03:55:49;100631.72;;;5.55;97.05
55675;BME280;41562;44.330;23.802;2023-04-08T03:58:17;100632.50;;;5.44;96.64
55675;BME280;41562;44.330;23.802;2023-04-08T04:00:46;100629.31;;;5.65;96.42
55675;BME280;41562;44.330;23.802;2023-04-08T04:03:14;100629.91;;;5.67;96.97
55675;BME280;41562;44.330;23.802;2023-04-08T04:05:43;100634.53;;;6.41;92.50
55675;BME280;41562;44.330;23.802;2023-04-08T04:08:11;100631.97;;;7.43;90.13
55675;BME280;41562;44.330;23.802;2023-04-08T04:10:39;100645.00;;;8.12;88.14
55675;BME280;41562;44.330;23.802;2023-04-08T04:13:06;100636.63;;;7.53;84.96
55675;BME280;41562;44.330;23.802;2023-04-08T04:15:37;100649.56;;;8.50;82.34
55675;BME280;41562;44.330;23.802;2023-04-08T04:18:05;100648.09;;;7.70;85.64
55675;BME280;41562;44.330;23.802;2023-04-08T04:20:33;100643.75;;;7.81;90.56
55675;BME280;41562;44.330;23.802;2023-04-08T04:23:00;100637.88;;;7.17;88.01
55675;BME280;41562;44.330;23.802;2023-04-08T04:25:28;100646.13;;;8.32;84.65
55675;BME280;41562;44.330;23.802;2023-04-08T04:27:55;100653.88;;;8.17;82.56
55675;BME280;41562;44.330;23.802;2023-04-08T04:30:23;100644.44;;;6.98;88.13
55675;BME280;41562;44.330;23.802;2023-04-08T04:32:50;100649.59;;;6.64;92.39
55675;BME280;41562;44.330;23.802;2023-04-08T04:35:18;100643.66;;;6.34;93.73
55675;BME280;41562;44.330;23.802;2023-04-08T04:37:45;100653.25;;;7.15;93.52
55675;BME280;41562;44.330;23.802;2023-04-08T04:40:12;100656.16;;;8.08;84.92
55675;BME280;41562;44.330;23.802;2023-04-08T04:42:40;100665.03;;;7.81;86.70
55675;BME280;41562;44.330;23.802;2023-04-08T04:45:08;100661.59;;;6.78;89.57
55675;BME280;41562;44.330;23.802;2023-04-08T04:47:35;100664.56;;;6.42;91.89
55675;BME280;41562;44.330;23.802;2023-04-08T04:50:03;100665.94;;;6.21;92.87
55675;BME280;41562;44.330;23.802;2023-04-08T04:52:31;100662.28;;;5.69;96.31
55675;BME280;41562;44.330;23.802;2023-04-08T04:54:59;100662.66;;;5.73;96.93
55675;BME280;41562;44.330;23.802;2023-04-08T04:57:26;100661.63;;;5.62;97.64
55675;BME280;41562;44.330;23.802;2023-04-08T04:59:53;100664.13;;;5.57;97.08
55675;BME280;41562;44.330;23.802;2023-04-08T05:02:20;100674.69;;;5.45;98.61
55675;BME280;41562;44.330;23.802;2023-04-08T05:05:01;100666.84;;;5.39;100.00
55675;BME280;41562;44.330;23.802;2023-04-08T05:07:47;100664.69;;;5.47;99.28
55675;BME280;41562;44.330;23.802;2023-04-08T05:10:16;100662.88;;;5.71;98.50
55675;BME280;41562;44.330;23.802;2023-04-08T05:12:44;100662.88;;;5.59;99.11
55675;BME280;41562;44.330;23.802;2023-04-08T05:15:11;100665.50;;;5.48;98.97
55675;BME280;41562;44.330;23.802;2023-04-08T05:17:39;100670.59;;;5.61;97.92
55675;BME280;41562;44.330;23.802;2023-04-08T05:20:07;100665.81;;;5.81;99.01
55675;BME280;41562;44.330;23.802;2023-04-08T05:22:34;100669.06;;;5.95;100.00
55675;BME280;41562;44.330;23.802;2023-04-08T05:25:02;100666.88;;;5.92;97.31
55675;BME280;41562;44.330;23.802;2023-04-08T05:27:30;100669.47;;;5.80;96.61
55675;BME280;41562;44.330;23.802;2023-04-08T05:29:58;100678.47;;;5.79;96.35
55675;BME280;41562;44.330;23.802;2023-04-08T05:32:25;100686.31;;;5.74;96.43
55675;BME280;41562;44.330;23.802;2023-04-08T05:34:52;100684.72;;;5.85;95.90
55675;BME280;41562;44.330;23.802;2023-04-08T05:37:20;100683.31;;;5.82;95.21
55675;BME280;41562;44.330;23.802;2023-04-08T05:39:47;100684.75;;;5.96;95.09
55675;BME280;41562;44.330;23.802;2023-04-08T05:42:15;100686.25;;;5.92;95.94
55675;BME280;41562;44.330;23.802;2023-04-08T05:44:42;100688.00;;;5.98;94.43
55675;BME280;41562;44.330;23.802;2023-04-08T05:47:09;100683.72;;;6.32;92.88
55675;BME280;41562;44.330;23.802;2023-04-08T05:49:37;100689.41;;;6.13;92.87
55675;BME280;41562;44.330;23.802;2023-04-08T05:52:05;100679.34;;;6.15;94.31
55675;BME280;41562;44.330;23.802;2023-04-08T05:54:32;100682.00;;;6.15;93.58
55675;BME280;41562;44.330;23.802;2023-04-08T05:57:00;100687.56;;;6.25;94.07
55675;BME280;41562;44.330;23.802;2023-04-08T05:59:30;100690.41;;;6.46;94.37
55675;BME280;41562;44.330;23.802;2023-04-08T06:01:57;100684.53;;;6.56;94.38
55675;BME280;41562;44.330;23.802;2023-04-08T06:04:25;100698.00;;;6.66;92.22
55675;BME280;41562;44.330;23.802;2023-04-08T06:06:52;100691.47;;;6.57;92.62
55675;BME280;41562;44.330;23.802;2023-04-08T06:09:19;100687.28;;;6.61;92.30
55675;BME280;41562;44.330;23.802;2023-04-08T06:11:48;100690.09;;;6.83;91.15
55675;BME280;41562;44.330;23.802;2023-04-08T06:14:15;100676.81;;;6.95;91.41
55675;BME280;41562;44.330;23.802;2023-04-08T06:16:43;100681.91;;;6.84;90.92
55675;BME280;41562;44.330;23.802;2023-04-08T06:19:10;100677.72;;;7.00;89.53
55675;BME280;41562;44.330;23.802;2023-04-08T06:21:38;100693.59;;;7.68;86.06
55675;BME280;41562;44.330;23.802;2023-04-08T06:24:05;100687.75;;;7.38;88.56
55675;BME280;41562;44.330;23.802;2023-04-08T06:26:32;100681.91;;;7.41;88.51
55675;BME280;41562;44.330;23.802;2023-04-08T06:29:00;100681.91;;;7.41;88.83
55675;BME280;41562;44.330;23.802;2023-04-08T06:31:27;100685.00;;;7.33;89.59
55675;BME280;41562;44.330;23.802;2023-04-08T06:33:55;100688.88;;;7.42;88.84
55675;BME280;41562;44.330;23.802;2023-04-08T06:36:22;100689.75;;;7.48;88.24
55675;BME280;41562;44.330;23.802;2023-04-08T06:38:49;100690.84;;;7.63;87.56
55675;BME280;41562;44.330;23.802;2023-04-08T06:41:17;100689.97;;;7.75;86.49
55675;BME280;41562;44.330;23.802;2023-04-08T06:43:44;100690.59;;;7.98;84.68
55675;BME280;41562;44.330;23.802;2023-04-08T06:46:11;100691.31;;;7.60;86.05
55675;BME280;41562;44.330;23.802;2023-04-08T06:48:39;100684.63;;;7.75;85.67
55675;BME280;41562;44.330;23.802;2023-04-08T06:51:07;100693.44;;;7.58;85.25
55675;BME280;41562;44.330;23.802;2023-04-08T06:53:35;100696.31;;;7.74;84.68
55675;BME280;41562;44.330;23.802;2023-04-08T06:56:03;100696.81;;;7.87;84.21
55675;BME280;41562;44.330;23.802;2023-04-08T06:58:34;100696.88;;;8.42;82.27
55675;BME280;41562;44.330;23.802;2023-04-08T07:01:01;100696.97;;;7.81;83.38
55675;BME280;41562;44.330;23.802;2023-04-08T07:03:28;100696.44;;;7.95;84.00
55675;BME280;41562;44.330;23.802;2023-04-08T07:05:56;100709.16;;;8.10;82.63
55675;BME280;41562;44.330;23.802;2023-04-08T07:08:23;100700.69;;;7.63;84.19
55675;BME280;41562;44.330;23.802;2023-04-08T07:10:51;100706.66;;;8.20;82.16
55675;BME280;41562;44.330;23.802;2023-04-08T07:13:18;100703.13;;;8.15;81.80
55675;BME280;41562;44.330;23.802;2023-04-08T07:15:46;100699.06;;;7.62;82.90
55675;BME280;41562;44.330;23.802;2023-04-08T07:18:13;100699.56;;;7.92;83.46
55675;BME280;41562;44.330;23.802;2023-04-08T07:20:40;100702.06;;;7.99;82.29
55675;BME280;41562;44.330;23.802;2023-04-08T07:23:08;100705.06;;;8.36;81.09
55675;BME280;41562;44.330;23.802;2023-04-08T07:25:35;100702.47;;;8.07;81.96
55675;BME280;41562;44.330;23.802;2023-04-08T07:28:02;100694.09;;;8.32;82.53
55675;BME280;41562;44.330;23.802;2023-04-08T07:30:30;100699.72;;;8.19;82.37
55675;BME280;41562;44.330;23.802;2023-04-08T07:32:57;100703.19;;;8.20;83.54
55675;BME280;41562;44.330;23.802;2023-04-08T07:35:28;100705.06;;;8.36;81.29
55675;BME280;41562;44.330;23.802;2023-04-08T07:37:58;100706.38;;;8.33;78.87
55675;BME280;41562;44.330;23.802;2023-04-08T07:40:25;100705.81;;;8.70;78.62
55675;BME280;41562;44.330;23.802;2023-04-08T07:42:53;100702.84;;;9.10;83.95
55675;BME280;41562;44.330;23.802;2023-04-08T07:45:20;100699.47;;;9.73;85.50
55675;BME280;41562;44.330;23.802;2023-04-08T07:47:47;100705.63;;;8.76;77.98
55675;BME280;41562;44.330;23.802;2023-04-08T07:50:15;100719.13;;;8.70;77.69
55675;BME280;41562;44.330;23.802;2023-04-08T07:52:42;100724.34;;;8.81;77.52
55675;BME280;41562;44.330;23.802;2023-04-08T07:55:10;100719.63;;;8.88;75.99
55675;BME280;41562;44.330;23.802;2023-04-08T07:57:38;100724.41;;;8.65;76.68
55675;BME280;41562;44.330;23.802;2023-04-08T08:00:06;100723.88;;;8.68;75.99
55675;BME280;41562;44.330;23.802;2023-04-08T08:02:33;100723.41;;;8.93;76.47
55675;BME280;41562;44.330;23.802;2023-04-08T08:05:01;100731.94;;;8.73;75.89
55675;BME280;41562;44.330;23.802;2023-04-08T08:07:28;100733.44;;;8.85;75.55
55675;BME280;41562;44.330;23.802;2023-04-08T08:09:56;100737.44;;;8.83;74.92
55675;BME280;41562;44.330;23.802;2023-04-08T08:12:23;100729.63;;;8.76;75.20
55675;BME280;41562;44.330;23.802;2023-04-08T08:14:50;100729.00;;;8.91;74.24
55675;BME280;41562;44.330;23.802;2023-04-08T08:17:18;100734.72;;;8.78;74.64
55675;BME280;41562;44.330;23.802;2023-04-08T08:19:45;100739.44;;;8.54;76.47
55675;BME280;41562;44.330;23.802;2023-04-08T08:22:12;100736.25;;;9.17;76.44
55675;BME280;41562;44.330;23.802;2023-04-08T08:24:40;100732.13;;;9.53;74.38
55675;BME280;41562;44.330;23.802;2023-04-08T08:27:10;100734.94;;;9.42;72.69
55675;BME280;41562;44.330;23.802;2023-04-08T08:29:37;100735.66;;;9.59;71.53
55675;BME280;41562;44.330;23.802;2023-04-08T08:32:05;100734.63;;;9.65;72.00
55675;BME280;41562;44.330;23.802;2023-04-08T08:34:32;100733.78;;;9.86;71.05
55675;BME280;41562;44.330;23.802;2023-04-08T08:37:03;100729.88;;;9.67;72.03
55675;BME280;41562;44.330;23.802;2023-04-08T08:39:32;100734.34;;;9.93;72.46
55675;BME280;41562;44.330;23.802;2023-04-08T08:41:59;100730.19;;;10.07;71.30
55675;BME280;41562;44.330;23.802;2023-04-08T08:44:28;100736.09;;;10.09;71.65
55675;BME280;41562;44.330;23.802;2023-04-08T08:46:56;100734.16;;;10.32;71.71
55675;BME280;41562;44.330;23.802;2023-04-08T08:49:24;100734.88;;;10.59;71.10
55675;BME280;41562;44.330;23.802;2023-04-08T08:51:52;100739.19;;;9.96;71.53
55675;BME280;41562;44.330;23.802;2023-04-08T08:54:21;100747.94;;;10.19;71.62
55675;BME280;41562;44.330;23.802;2023-04-08T08:56:48;100742.78;;;9.80;71.62
55675;BME280;41562;44.330;23.802;2023-04-08T08:59:16;100744.50;;;9.91;72.95
55675;BME280;41562;44.330;23.802;2023-04-08T09:01:44;100741.00;;;10.18;71.59
55675;BME280;41562;44.330;23.802;2023-04-08T09:04:21;100749.16;;;10.38;72.73
55675;BME280;41562;44.330;23.802;2023-04-08T09:06:50;100739.94;;;10.56;73.22
55675;BME280;41562;44.330;23.802;2023-04-08T09:09:47;100752.81;;;10.64;70.85
55675;BME280;41562;44.330;23.802;2023-04-08T09:12:17;100749.75;;;10.45;70.47
55675;BME280;41562;44.330;23.802;2023-04-08T09:14:45;100752.91;;;10.37;71.93
55675;BME280;41562;44.330;23.802;2023-04-08T09:17:12;100745.75;;;10.95;74.66
55675;BME280;41562;44.330;23.802;2023-04-08T09:20:03;100742.69;;;11.38;72.30
55675;BME280;41562;44.330;23.802;2023-04-08T09:22:31;100750.78;;;11.53;71.12
55675;BME280;41562;44.330;23.802;2023-04-08T09:24:59;100754.69;;;11.25;67.10
55675;BME280;41562;44.330;23.802;2023-04-08T09:27:34;100749.97;;;11.48;68.17
55675;BME280;41562;44.330;23.802;2023-04-08T09:30:14;100751.19;;;10.63;70.36
55675;BME280;41562;44.330;23.802;2023-04-08T09:32:50;100752.97;;;10.94;68.92
55675;BME280;41562;44.330;23.802;2023-04-08T09:35:18;100753.53;;;11.01;67.17
55675;BME280;41562;44.330;23.802;2023-04-08T09:37:46;100750.38;;;11.09;65.88
55675;BME280;41562;44.330;23.802;2023-04-08T09:40:14;100755.16;;;11.02;67.59
55675;BME280;41562;44.330;23.802;2023-04-08T09:42:47;100749.91;;;11.33;66.45
55675;BME280;41562;44.330;23.802;2023-04-08T09:45:16;100749.72;;;11.59;65.55
55675;BME280;41562;44.330;23.802;2023-04-08T09:48:11;100758.56;;;11.65;69.14
55675;BME280;41562;44.330;23.802;2023-04-08T09:50:46;100755.06;;;11.49;66.06
55675;BME280;41562;44.330;23.802;2023-04-08T09:53:22;100751.41;;;11.96;74.65
55675;BME280;41562;44.330;23.802;2023-04-08T09:55:55;100751.28;;;11.40;65.43
55675;BME280;41562;44.330;23.802;2023-04-08T09:58:58;100761.75;;;10.79;66.37
55675;BME280;41562;44.330;23.802;2023-04-08T10:01:37;100759.28;;;10.68;68.19
55675;BME280;41562;44.330;23.802;2023-04-08T10:04:11;100747.53;;;11.31;67.19
55675;BME280;41562;44.330;23.802;2023-04-08T10:06:40;100751.91;;;11.83;64.81
55675;BME280;41562;44.330;23.802;2023-04-08T10:09:08;100751.06;;;11.67;63.48
55675;BME280;41562;44.330;23.802;2023-04-08T10:11:39;100746.97;;;11.34;65.71
55675;BME280;41562;44.330;23.802;2023-04-08T10:14:08;100747.56;;;11.51;65.66
55675;BME280;41562;44.330;23.802;2023-04-08T10:16:35;100745.91;;;11.40;65.98
55675;BME280;41562;44.330;23.802;2023-04-08T10:19:35;100748.41;;;11.72;64.21
55675;BME280;41562;44.330;23.802;2023-04-08T10:22:02;100746.53;;;11.67;65.15
55675;BME280;41562;44.330;23.802;2023-04-08T10:24:32;100742.84;;;12.09;64.79
55675;BME280;41562;44.330;23.802;2023-04-08T10:27:37;100735.06;;;12.02;67.15
55675;BME280;41562;44.330;23.802;2023-04-08T10:32:56;100741.22;;;11.78;65.89
55675;BME280;41562;44.330;23.802;2023-04-08T10:35:40;100735.75;;;11.42;68.14
55675;BME280;41562;44.330;23.802;2023-04-08T10:38:08;100737.94;;;11.65;66.94
55675;BME280;41562;44.330;23.802;2023-04-08T10:40:37;100730.72;;;11.61;65.14
55675;BME280;41562;44.330;23.802;2023-04-08T10:43:04;100732.53;;;11.30;67.27
55675;BME280;41562;44.330;23.802;2023-04-08T10:45:32;100731.72;;;11.35;65.75
55675;BME280;41562;44.330;23.802;2023-04-08T10:48:21;100726.31;;;11.19;67.90
55675;BME280;41562;44.330;23.802;2023-04-08T10:51:00;100721.63;;;11.62;65.81
55675;BME280;41562;44.330;23.802;2023-04-08T10:53:33;100727.41;;;11.28;66.81
55675;BME280;41562;44.330;23.802;2023-04-08T10:58:32;100725.06;;;11.52;63.99
55675;BME280;41562;44.330;23.802;2023-04-08T11:01:06;100719.75;;;11.73;64.23
55675;BME280;41562;44.330;23.802;2023-04-08T11:03:34;100711.75;;;11.88;65.67
55675;BME280;41562;44.330;23.802;2023-04-08T11:06:02;100714.09;;;11.64;63.97
55675;BME280;41562;44.330;23.802;2023-04-08T11:08:31;100714.59;;;11.36;65.57
55675;BME280;41562;44.330;23.802;2023-04-08T11:10:59;100718.63;;;11.53;65.99
55675;BME280;41562;44.330;23.802;2023-04-08T11:13:27;100719.72;;;11.57;65.40
55675;BME280;41562;44.330;23.802;2023-04-08T11:15:57;100719.72;;;11.57;65.40
55675;BME280;41562;44.330;23.802;2023-04-08T11:18:25;100711.72;;;11.62;65.10
55675;BME280;41562;44.330;23.802;2023-04-08T11:20:55;100721.41;;;12.04;63.55
55675;BME280;41562;44.330;23.802;2023-04-08T11:23:26;100716.00;;;12.29;65.60
55675;BME280;41562;44.330;23.802;2023-04-08T11:25:54;100708.00;;;12.04;65.42
55675;BME280;41562;44.330;23.802;2023-04-08T11:28:22;100709.84;;;12.08;63.01
55675;BME280;41562;44.330;23.802;2023-04-08T11:30:50;100705.84;;;11.96;63.49
55675;BME280;41562;44.330;23.802;2023-04-08T11:33:17;100705.31;;;11.74;62.63
55675;BME280;41562;44.330;23.802;2023-04-08T11:35:45;100697.25;;;12.09;62.99
55675;BME280;41562;44.330;23.802;2023-04-08T11:38:13;100696.75;;;12.07;61.85
55675;BME280;41562;44.330;23.802;2023-04-08T11:40:54;100696.97;;;11.70;62.13
55675;BME280;41562;44.330;23.802;2023-04-08T11:43:22;100701.50;;;11.54;61.97
55675;BME280;41562;44.330;23.802;2023-04-08T11:45:49;100692.72;;;12.04;62.96
55675;BME280;41562;44.330;23.802;2023-04-08T11:48:17;100687.34;;;12.04;61.08
55675;BME280;41562;44.330;23.802;2023-04-08T11:50:44;100689.50;;;11.92;61.12
55675;BME280;41562;44.330;23.802;2023-04-08T11:53:20;100691.38;;;11.77;61.17
55675;BME280;41562;44.330;23.802;2023-04-08T11:55:49;100692.16;;;11.62;64.79
55675;BME280;41562;44.330;23.802;2023-04-08T11:58:17;100694.53;;;11.43;62.90
55675;BME280;41562;44.330;23.802;2023-04-08T12:00:44;100688.06;;;11.34;63.04
55675;BME280;41562;44.330;23.802;2023-04-08T12:03:12;100685.13;;;11.31;63.88
55675;BME280;41562;44.330;23.802;2023-04-08T12:05:40;100682.25;;;11.62;64.46
55675;BME280;41562;44.330;23.802;2023-04-08T12:08:07;100687.63;;;11.83;63.70
55675;BME280;41562;44.330;23.802;2023-04-08T12:10:34;100688.63;;;11.31;64.68
55675;BME280;41562;44.330;23.802;2023-04-08T12:13:05;100680.09;;;11.44;64.37
55675;BME280;41562;44.330;23.802;2023-04-08T12:15:32;100677.91;;;11.51;65.02
55675;BME280;41562;44.330;23.802;2023-04-08T12:18:00;100680.66;;;11.87;63.15
55675;BME280;41562;44.330;23.802;2023-04-08T12:20:27;100681.22;;;11.94;62.94
55675;BME280;41562;44.330;23.802;2023-04-08T12:22:54;100689.22;;;12.24;62.95
55675;BME280;41562;44.330;23.802;2023-04-08T12:25:22;100673.66;;;11.55;66.80
55675;BME280;41562;44.330;23.802;2023-04-08T12:27:49;100680.13;;;11.75;63.63
55675;BME280;41562;44.330;23.802;2023-04-08T12:30:17;100678.47;;;11.58;64.69
55675;BME280;41562;44.330;23.802;2023-04-08T12:32:44;100674.72;;;11.64;64.72
55675;BME280;41562;44.330;23.802;2023-04-08T12:35:12;100677.69;;;11.63;66.10
55675;BME280;41562;44.330;23.802;2023-04-08T12:37:39;100670.22;;;11.80;66.36
55675;BME280;41562;44.330;23.802;2023-04-08T12:40:07;100668.56;;;11.59;66.59
55675;BME280;41562;44.330;23.802;2023-04-08T12:42:35;100671.19;;;11.23;69.24
55675;BME280;41562;44.330;23.802;2023-04-08T12:45:02;100681.03;;;11.03;71.08
55675;BME280;41562;44.330;23.802;2023-04-08T12:47:32;100673.25;;;11.01;74.14
55675;BME280;41562;44.330;23.802;2023-04-08T12:50:00;100667.09;;;11.01;73.79
55675;BME280;41562;44.330;23.802;2023-04-08T12:52:27;100666.59;;;11.14;73.19
55675;BME280;41562;44.330;23.802;2023-04-08T12:54:55;100665.03;;;11.33;71.90
55675;BME280;41562;44.330;23.802;2023-04-08T12:57:22;100669.38;;;11.49;72.49
55675;BME280;41562;44.330;23.802;2023-04-08T12:59:49;100659.69;;;11.23;71.22
55675;BME280;41562;44.330;23.802;2023-04-08T13:02:17;100655.69;;;11.31;71.18